sensor_id;sensor_type;location;lat;lon;timestamp;temperature;humidity
41756;DHT22;27435;48.480;9.258;2023-11-21T00:02:04;8.00;99.00
41756;DHT22;27435;48.480;9.258;2023-11-21T00:04:30;8.10;99.00
41756;DHT22;27435;48.480;9.258;2023-11-21T00:06:56;8.10;99.00
41756;DHT22;27435;48.480;9.258;2023-11-21T00:09:21;8.10;99.00
41756;DHT22;27435;48.480;9.258;2023-11-21T00:11:47;8.20;99.00
41756;DHT22;27435;48.480;9.258;2023-11-21T00:14:13;8.20;99.00
41756;DHT22;27435;48.480;9.258;2023-11-21T00:16:40;8.10;99.00
41756;DHT22;27435;48.480;9.258;2023-11-21T00:19:06;8.10;99.00
41756;DHT22;27435;48.480;9.258;2023-11-21T00:21:32;8.10;99.00
41756;DHT22;27435;48.480;9.258;2023-11-21T00:23:57;8.10;99.00
41756;DHT22;27435;48.480;9.258;2023-11-21T00:26:23;8.20;99.00
41756;DHT22;27435;48.480;9.258;2023-11-21T00:28:50;8.30;99.00
41756;DHT22;27435;48.480;9.258;2023-11-21T00:31:16;8.30;99.00
41756;DHT22;27435;48.480;9.258;2023-11-21T00:33:41;8.30;99.00
41756;DHT22;27435;48.480;9.258;2023-11-21T00:36:07;8.30;99.00
41756;DHT22;27435;48.480;9.258;2023-11-21T00:38:36;8.30;99.00
41756;DHT22;27435;48.480;9.258;2023-11-21T00:41:01;8.30;99.00
41756;DHT22;27435;48.480;9.258;2023-11-21T00:43:28;8.30;99.00
41756;DHT22;27435;48.480;9.258;2023-11-21T00:45:53;8.40;99.00
41756;DHT22;27435;48.480;9.258;2023-11-21T00:48:19;8.40;99.00
41756;DHT22;27435;48.480;9.258;2023-11-21T00:50:45;8.50;99.00
41756;DHT22;27435;48.480;9.258;2023-11-21T00:53:10;8.50;99.00
41756;DHT22;27435;48.480;9.258;2023-11-21T00:55:37;8.50;99.00
41756;DHT22;27435;48.480;9.258;2023-11-21T00:58:05;8.40;99.00
41756;DHT22;27435;48.480;9.258;2023-11-21T01:00:32;8.40;99.00
41756;DHT22;27435;48.480;9.258;2023-11-21T01:02:58;8.40;99.00
41756;DHT22;27435;48.480;9.258;2023-11-21T01:05:24;8.40;99.00
41756;DHT22;27435;48.480;9.258;2023-11-21T01:07:50;8.50;99.00
41756;DHT22;27435;48.480;9.258;2023-11-21T01:10:15;8.50;99.00
41756;DHT22;27435;48.480;9.258;2023-11-21T01:12:43;8.60;99.00
41756;DHT22;27435;48.480;9.258;2023-11-21T01:15:08;8.60;99.00
41756;DHT22;27435;48.480;9.258;2023-11-21T01:17:34;8.60;99.00
41756;DHT22;27435;48.480;9.258;2023-11-21T01:20:01;8.70;99.00
41756;DHT22;27435;48.480;9.258;2023-11-21T01:22:26;8.80;99.00
41756;DHT22;27435;48.480;9.258;2023-11-21T01:24:53;8.70;99.00
41756;DHT22;27435;48.480;9.258;2023-11-21T01:27:20;8.70;99.00
41756;DHT22;27435;48.480;9.258;2023-11-21T01:29:45;8.60;99.00
41756;DHT22;27435;48.480;9.258;2023-11-21T01:32:11;8.70;99.00
41756;DHT22;27435;48.480;9.258;2023-11-21T01:34:37;8.70;99.00
41756;DHT22;27435;48.480;9.258;2023-11-21T01:37:03;8.60;99.00
41756;DHT22;27435;48.480;9.258;2023-11-21T01:39:30;8.70;99.00
41756;DHT22;27435;48.480;9.258;2023-11-21T01:41:57;8.70;99.00
41756;DHT22;27435;48.480;9.258;2023-11-21T01:44:24;8.60;99.00
41756;DHT22;27435;48.480;9.258;2023-11-21T01:46:50;8.60;99.00
41756;DHT22;27435;48.480;9.258;2023-11-21T01:49:17;8.70;99.00
41756;DHT22;27435;48.480;9.258;2023-11-21T01:51:44;8.70;99.00
41756;DHT22;27435;48.480;9.258;2023-11-21T01:54:11;8.60;99.00
41756;DHT22;27435;48.480;9.258;2023-11-21T01:56:37;8.60;99.00
41756;DHT22;27435;48.480;9.258;2023-11-21T01:59:03;8.60;99.00
41756;DHT22;27435;48.480;9.258;2023-11-21T02:01:29;8.70;99.00
41756;DHT22;27435;48.480;9.258;2023-11-21T02:03:54;8.60;99.00
41756;DHT22;27435;48.480;9.258;2023-11-21T02:06:21;8.50;99.00
41756;DHT22;27435;48.480;9.258;2023-11-21T02:08:47;8.50;99.00
41756;DHT22;27435;48.480;9.258;2023-11-21T02:11:13;8.40;99.00
41756;DHT22;27435;48.480;9.258;2023-11-21T02:13:39;8.40;99.00
41756;DHT22;27435;48.480;9.258;2023-11-21T02:16:10;8.50;99.00
41756;DHT22;27435;48.480;9.258;2023-11-21T02:18:39;8.40;99.00
41756;DHT22;27435;48.480;9.258;2023-11-21T02:21:05;8.40;99.00
41756;DHT22;27435;48.480;9.258;2023-11-21T02:23:30;8.40;99.00
41756;DHT22;27435;48.480;9.258;2023-11-21T02:25:56;8.40;99.00
41756;DHT22;27435;48.480;9.258;2023-11-21T02:28:22;8.50;99.00
41756;DHT22;27435;48.480;9.258;2023-11-21T02:30:52;8.60;99.00
41756;DHT22;27435;48.480;9.258;2023-11-21T02:33:21;8.50;99.00
41756;DHT22;27435;48.480;9.258;2023-11-21T02:35:47;8.50;99.00
41756;DHT22;27435;48.480;9.258;2023-11-21T02:38:13;8.40;99.00
41756;DHT22;27435;48.480;9.258;2023-11-21T02:40:39;8.30;99.00
41756;DHT22;27435;48.480;9.258;2023-11-21T02:43:05;8.30;99.00
41756;DHT22;27435;48.480;9.258;2023-11-21T02:45:31;8.20;99.00
41756;DHT22;27435;48.480;9.258;2023-11-21T02:47:57;8.20;99.00
41756;DHT22;27435;48.480;9.258;2023-11-21T02:50:24;8.30;99.00
41756;DHT22;27435;48.480;9.258;2023-11-21T02:52:50;8.40;99.00
41756;DHT22;27435;48.480;9.258;2023-11-21T02:55:15;8.30;99.00
41756;DHT22;27435;48.480;9.258;2023-11-21T02:57:41;8.40;99.00
41756;DHT22;27435;48.480;9.258;2023-11-21T03:00:07;8.50;99.00
41756;DHT22;27435;48.480;9.258;2023-11-21T03:02:34;8.40;99.00
41756;DHT22;27435;48.480;9.258;2023-11-21T03:05:05;8.30;99.00
41756;DHT22;27435;48.480;9.258;2023-11-21T03:07:30;8.30;99.00
41756;DHT22;27435;48.480;9.258;2023-11-21T03:09:56;8.20;99.00
41756;DHT22;27435;48.480;9.258;2023-11-21T03:12:22;8.30;99.00
41756;DHT22;27435;48.480;9.258;2023-11-21T03:14:47;8.20;99.00
41756;DHT22;27435;48.480;9.258;2023-11-21T03:17:13;8.40;99.00
41756;DHT22;27435;48.480;9.258;2023-11-21T03:19:41;8.50;99.00
41756;DHT22;27435;48.480;9.258;2023-11-21T03:22:07;8.60;99.00
41756;DHT22;27435;48.480;9.258;2023-11-21T03:24:34;8.50;99.00
41756;DHT22;27435;48.480;9.258;2023-11-21T03:26:59;8.50;99.00
41756;DHT22;27435;48.480;9.258;2023-11-21T03:29:25;8.40;99.00
41756;DHT22;27435;48.480;9.258;2023-11-21T03:31:51;8.50;99.00
41756;DHT22;27435;48.480;9.258;2023-11-21T03:34:24;8.50;99.00
41756;DHT22;27435;48.480;9.258;2023-11-21T03:36:51;8.40;99.00
41756;DHT22;27435;48.480;9.258;2023-11-21T03:39:18;8.50;99.00
41756;DHT22;27435;48.480;9.258;2023-11-21T03:41:44;8.50;99.00
41756;DHT22;27435;48.480;9.258;2023-11-21T03:44:10;8.50;99.00
41756;DHT22;27435;48.480;9.258;2023-11-21T03:46:36;8.30;99.00
41756;DHT22;27435;48.480;9.258;2023-11-21T03:49:01;8.30;99.00
41756;DHT22;27435;48.480;9.258;2023-11-21T03:51:27;8.50;99.00
41756;DHT22;27435;48.480;9.258;2023-11-21T03:53:52;8.50;99.00
41756;DHT22;27435;48.480;9.258;2023-11-21T03:56:19;8.40;99.00
41756;DHT22;27435;48.480;9.258;2023-11-21T03:58:47;8.40;99.00
41756;DHT22;27435;48.480;9.258;2023-11-21T04:01:24;8.50;99.00
41756;DHT22;27435;48.480;9.258;2023-11-21T04:03:50;8.50;99.00
41756;DHT22;27435;48.480;9.258;2023-11-21T04:06:17;8.50;99.00
41756;DHT22;27435;48.480;9.258;2023-11-21T04:08:44;8.50;99.00
41756;DHT22;27435;48.480;9.258;2023-11-21T04:11:10;8.50;99.00
41756;DHT22;27435;48.480;9.258;2023-11-21T04:13:38;8.50;99.00
41756;DHT22;27435;48.480;9.258;2023-11-21T04:16:08;8.50;99.00
41756;DHT22;27435;48.480;9.258;2023-11-21T04:18:35;8.60;99.00
41756;DHT22;27435;48.480;9.258;2023-11-21T04:21:01;8.60;99.00
41756;DHT22;27435;48.480;9.258;2023-11-21T04:23:28;8.50;99.00
41756;DHT22;27435;48.480;9.258;2023-11-21T04:25:54;8.50;99.00
41756;DHT22;27435;48.480;9.258;2023-11-21T04:28:23;8.50;99.00
41756;DHT22;27435;48.480;9.258;2023-11-21T04:30:49;8.50;99.00
41756;DHT22;27435;48.480;9.258;2023-11-21T04:33:15;8.40;99.00
41756;DHT22;27435;48.480;9.258;2023-11-21T04:35:41;8.50;99.00
41756;DHT22;27435;48.480;9.258;2023-11-21T04:38:07;8.50;99.00
41756;DHT22;27435;48.480;9.258;2023-11-21T04:40:33;8.50;99.00
41756;DHT22;27435;48.480;9.258;2023-11-21T04:42:58;8.50;99.00
41756;DHT22;27435;48.480;9.258;2023-11-21T04:45:24;8.50;99.00
41756;DHT22;27435;48.480;9.258;2023-11-21T04:47:50;8.60;99.00
41756;DHT22;27435;48.480;9.258;2023-11-21T04:50:17;8.40;99.00
41756;DHT22;27435;48.480;9.258;2023-11-21T04:52:42;8.30;99.00
41756;DHT22;27435;48.480;9.258;2023-11-21T04:55:08;8.40;99.00
41756;DHT22;27435;48.480;9.258;2023-11-21T04:57:36;8.40;99.00
41756;DHT22;27435;48.480;9.258;2023-11-21T05:00:02;8.30;99.00
41756;DHT22;27435;48.480;9.258;2023-11-21T05:02:32;8.40;99.00
41756;DHT22;27435;48.480;9.258;2023-11-21T05:04:59;8.40;99.00
41756;DHT22;27435;48.480;9.258;2023-11-21T05:07:25;8.40;99.00
41756;DHT22;27435;48.480;9.258;2023-11-21T05:09:57;8.40;99.00
41756;DHT22;27435;48.480;9.258;2023-11-21T05:12:23;8.30;99.00
41756;DHT22;27435;48.480;9.258;2023-11-21T05:14:50;8.20;99.00
41756;DHT22;27435;48.480;9.258;2023-11-21T05:17:15;8.30;99.00
41756;DHT22;27435;48.480;9.258;2023-11-21T05:19:41;8.20;99.00
41756;DHT22;27435;48.480;9.258;2023-11-21T05:22:08;8.20;99.00
41756;DHT22;27435;48.480;9.258;2023-11-21T05:24:34;8.20;99.00
41756;DHT22;27435;48.480;9.258;2023-11-21T05:27:00;8.10;99.00
41756;DHT22;27435;48.480;9.258;2023-11-21T05:29:26;8.10;99.00
41756;DHT22;27435;48.480;9.258;2023-11-21T05:31:52;8.10;99.00
41756;DHT22;27435;48.480;9.258;2023-11-21T05:34:18;8.20;99.00
41756;DHT22;27435;48.480;9.258;2023-11-21T05:36:44;8.20;99.00
41756;DHT22;27435;48.480;9.258;2023-11-21T05:39:11;8.20;99.00
41756;DHT22;27435;48.480;9.258;2023-11-21T05:41:37;8.20;99.00
41756;DHT22;27435;48.480;9.258;2023-11-21T05:44:03;8.10;99.00
41756;DHT22;27435;48.480;9.258;2023-11-21T05:46:28;8.00;99.00
41756;DHT22;27435;48.480;9.258;2023-11-21T05:48:54;7.90;99.00
41756;DHT22;27435;48.480;9.258;2023-11-21T05:51:20;8.00;99.00
41756;DHT22;27435;48.480;9.258;2023-11-21T05:53:46;8.10;99.00
41756;DHT22;27435;48.480;9.258;2023-11-21T05:56:12;8.20;99.00
41756;DHT22;27435;48.480;9.258;2023-11-21T05:58:39;8.20;99.00
41756;DHT22;27435;48.480;9.258;2023-11-21T06:01:06;8.10;99.00
41756;DHT22;27435;48.480;9.258;2023-11-21T06:03:38;8.30;99.00
41756;DHT22;27435;48.480;9.258;2023-11-21T06:06:04;8.30;99.00
41756;DHT22;27435;48.480;9.258;2023-11-21T06:08:30;8.20;99.00
41756;DHT22;27435;48.480;9.258;2023-11-21T06:10:56;8.30;99.00
41756;DHT22;27435;48.480;9.258;2023-11-21T06:13:21;8.40;99.00
41756;DHT22;27435;48.480;9.258;2023-11-21T06:15:50;8.30;99.00
41756;DHT22;27435;48.480;9.258;2023-11-21T06:18:16;8.30;99.00
41756;DHT22;27435;48.480;9.258;2023-11-21T06:20:45;8.20;99.00
41756;DHT22;27435;48.480;9.258;2023-11-21T06:23:11;8.10;99.00
41756;DHT22;27435;48.480;9.258;2023-11-21T06:25:36;7.90;99.00
41756;DHT22;27435;48.480;9.258;2023-11-21T06:28:02;7.90;99.00
41756;DHT22;27435;48.480;9.258;2023-11-21T06:30:28;8.00;99.00
41756;DHT22;27435;48.480;9.258;2023-11-21T06:32:54;7.90;99.00
41756;DHT22;27435;48.480;9.258;2023-11-21T06:35:21;7.80;99.00
41756;DHT22;27435;48.480;9.258;2023-11-21T06:37:47;7.80;99.00
41756;DHT22;27435;48.480;9.258;2023-11-21T06:40:13;7.70;99.00
41756;DHT22;27435;48.480;9.258;2023-11-21T06:42:43;7.80;99.00
41756;DHT22;27435;48.480;9.258;2023-11-21T06:45:10;7.90;99.00
41756;DHT22;27435;48.480;9.258;2023-11-21T06:47:37;7.90;99.00
41756;DHT22;27435;48.480;9.258;2023-11-21T06:50:03;7.90;99.00
41756;DHT22;27435;48.480;9.258;2023-11-21T06:52:29;7.90;99.00
41756;DHT22;27435;48.480;9.258;2023-11-21T06:54:55;8.00;99.00
41756;DHT22;27435;48.480;9.258;2023-11-21T06:57:23;7.90;99.00
41756;DHT22;27435;48.480;9.258;2023-11-21T06:59:48;7.90;99.00
41756;DHT22;27435;48.480;9.258;2023-11-21T07:02:16;8.00;99.00
41756;DHT22;27435;48.480;9.258;2023-11-21T07:04:45;8.10;99.00
41756;DHT22;27435;48.480;9.258;2023-11-21T07:07:11;8.20;99.00
41756;DHT22;27435;48.480;9.258;2023-11-21T07:09:37;8.40;99.00
41756;DHT22;27435;48.480;9.258;2023-11-21T07:12:03;8.50;99.00
41756;DHT22;27435;48.480;9.258;2023-11-21T07:14:31;8.50;99.00
41756;DHT22;27435;48.480;9.258;2023-11-21T07:16:57;8.70;99.00
41756;DHT22;27435;48.480;9.258;2023-11-21T07:19:23;8.70;99.00
41756;DHT22;27435;48.480;9.258;2023-11-21T07:21:49;8.70;99.00
41756;DHT22;27435;48.480;9.258;2023-11-21T07:24:17;8.80;99.00
41756;DHT22;27435;48.480;9.258;2023-11-21T07:26:43;8.90;99.00
41756;DHT22;27435;48.480;9.258;2023-11-21T07:29:08;9.10;99.00
41756;DHT22;27435;48.480;9.258;2023-11-21T07:31:34;9.20;99.00
41756;DHT22;27435;48.480;9.258;2023-11-21T07:34:00;9.20;99.00
41756;DHT22;27435;48.480;9.258;2023-11-21T07:36:26;9.00;99.00
41756;DHT22;27435;48.480;9.258;2023-11-21T07:38:52;9.00;99.00
41756;DHT22;27435;48.480;9.258;2023-11-21T07:41:18;8.90;99.00
41756;DHT22;27435;48.480;9.258;2023-11-21T07:43:45;8.90;99.00
41756;DHT22;27435;48.480;9.258;2023-11-21T07:46:11;9.00;99.00
41756;DHT22;27435;48.480;9.258;2023-11-21T07:48:38;9.00;99.00
41756;DHT22;27435;48.480;9.258;2023-11-21T07:51:04;9.10;99.00
41756;DHT22;27435;48.480;9.258;2023-11-21T07:53:30;9.20;99.00
41756;DHT22;27435;48.480;9.258;2023-11-21T07:56:05;9.10;99.00
41756;DHT22;27435;48.480;9.258;2023-11-21T07:58:31;9.10;99.00
41756;DHT22;27435;48.480;9.258;2023-11-21T08:00:59;9.20;99.00
41756;DHT22;27435;48.480;9.258;2023-11-21T08:03:24;9.30;99.00
41756;DHT22;27435;48.480;9.258;2023-11-21T08:05:52;9.40;99.00
41756;DHT22;27435;48.480;9.258;2023-11-21T08:08:18;9.50;99.00
41756;DHT22;27435;48.480;9.258;2023-11-21T08:10:44;9.60;99.00
41756;DHT22;27435;48.480;9.258;2023-11-21T08:13:24;9.70;99.00
41756;DHT22;27435;48.480;9.258;2023-11-21T08:15:50;9.80;99.00
41756;DHT22;27435;48.480;9.258;2023-11-21T08:18:16;9.80;99.00
41756;DHT22;27435;48.480;9.258;2023-11-21T08:20:43;9.70;99.00
41756;DHT22;27435;48.480;9.258;2023-11-21T08:23:10;9.70;99.00
41756;DHT22;27435;48.480;9.258;2023-11-21T08:25:36;9.30;99.00
41756;DHT22;27435;48.480;9.258;2023-11-21T08:28:02;9.40;99.00
41756;DHT22;27435;48.480;9.258;2023-11-21T08:30:28;9.50;99.00
41756;DHT22;27435;48.480;9.258;2023-11-21T08:32:55;9.50;99.00
41756;DHT22;27435;48.480;9.258;2023-11-21T08:35:24;9.40;99.00
41756;DHT22;27435;48.480;9.258;2023-11-21T08:37:52;9.50;99.00
41756;DHT22;27435;48.480;9.258;2023-11-21T08:40:19;9.50;99.00
41756;DHT22;27435;48.480;9.258;2023-11-21T08:42:46;9.50;99.00
41756;DHT22;27435;48.480;9.258;2023-11-21T08:45:12;9.50;99.00
41756;DHT22;27435;48.480;9.258;2023-11-21T08:47:39;9.30;99.00
41756;DHT22;27435;48.480;9.258;2023-11-21T08:50:06;9.20;99.00
41756;DHT22;27435;48.480;9.258;2023-11-21T08:52:33;9.40;99.00
41756;DHT22;27435;48.480;9.258;2023-11-21T08:54:59;9.40;99.00
41756;DHT22;27435;48.480;9.258;2023-11-21T08:57:28;9.50;99.00
41756;DHT22;27435;48.480;9.258;2023-11-21T08:59:54;9.70;99.00
41756;DHT22;27435;48.480;9.258;2023-11-21T09:02:26;9.90;99.00
41756;DHT22;27435;48.480;9.258;2023-11-21T09:04:52;9.90;99.00
41756;DHT22;27435;48.480;9.258;2023-11-21T09:07:19;9.90;99.00
41756;DHT22;27435;48.480;9.258;2023-11-21T09:09:48;9.80;99.00
41756;DHT22;27435;48.480;9.258;2023-11-21T09:12:15;9.90;99.00
41756;DHT22;27435;48.480;9.258;2023-11-21T09:14:42;10.00;99.00
41756;DHT22;27435;48.480;9.258;2023-11-21T09:17:09;10.00;99.00
41756;DHT22;27435;48.480;9.258;2023-11-21T09:19:38;9.90;99.00
41756;DHT22;27435;48.480;9.258;2023-11-21T09:22:04;10.10;99.00
41756;DHT22;27435;48.480;9.258;2023-11-21T09:24:33;10.30;99.00
41756;DHT22;27435;48.480;9.258;2023-11-21T09:27:00;10.40;99.00
41756;DHT22;27435;48.480;9.258;2023-11-21T09:29:26;10.40;99.00
41756;DHT22;27435;48.480;9.258;2023-11-21T09:31:52;10.40;99.00
41756;DHT22;27435;48.480;9.258;2023-11-21T09:34:22;10.10;99.00
41756;DHT22;27435;48.480;9.258;2023-11-21T09:36:48;10.10;99.00
41756;DHT22;27435;48.480;9.258;2023-11-21T09:39:14;10.20;99.00
41756;DHT22;27435;48.480;9.258;2023-11-21T09:41:43;10.30;99.00
41756;DHT22;27435;48.480;9.258;2023-11-21T09:44:13;10.10;99.00
41756;DHT22;27435;48.480;9.258;2023-11-21T09:46:42;10.10;99.00
41756;DHT22;27435;48.480;9.258;2023-11-21T09:49:09;10.00;99.00
41756;DHT22;27435;48.480;9.258;2023-11-21T09:51:42;9.80;99.00
41756;DHT22;27435;48.480;9.258;2023-11-21T09:54:10;9.80;99.00
41756;DHT22;27435;48.480;9.258;2023-11-21T09:56:37;9.90;99.00
41756;DHT22;27435;48.480;9.258;2023-11-21T09:59:04;10.10;99.00
41756;DHT22;27435;48.480;9.258;2023-11-21T10:01:33;10.30;99.00
41756;DHT22;27435;48.480;9.258;2023-11-21T10:04:01;10.30;99.00
41756;DHT22;27435;48.480;9.258;2023-11-21T10:06:27;10.30;99.00
41756;DHT22;27435;48.480;9.258;2023-11-21T10:08:54;10.50;99.00
41756;DHT22;27435;48.480;9.258;2023-11-21T10:11:25;10.40;99.00
41756;DHT22;27435;48.480;9.258;2023-11-21T10:13:54;10.30;99.00
41756;DHT22;27435;48.480;9.258;2023-11-21T10:16:25;10.20;99.00
41756;DHT22;27435;48.480;9.258;2023-11-21T10:18:53;10.20;99.00
41756;DHT22;27435;48.480;9.258;2023-11-21T10:21:21;10.10;99.00
41756;DHT22;27435;48.480;9.258;2023-11-21T10:23:47;10.00;99.00
41756;DHT22;27435;48.480;9.258;2023-11-21T10:26:13;10.10;99.00
41756;DHT22;27435;48.480;9.258;2023-11-21T10:28:54;10.00;99.00
41756;DHT22;27435;48.480;9.258;2023-11-21T10:31:21;9.90;99.00
41756;DHT22;27435;48.480;9.258;2023-11-21T10:33:47;9.80;99.00
41756;DHT22;27435;48.480;9.258;2023-11-21T10:36:12;9.60;99.00
41756;DHT22;27435;48.480;9.258;2023-11-21T10:38:42;9.50;99.00
41756;DHT22;27435;48.480;9.258;2023-11-21T10:41:11;9.20;99.00
41756;DHT22;27435;48.480;9.258;2023-11-21T10:43:39;9.10;99.00
41756;DHT22;27435;48.480;9.258;2023-11-21T10:46:05;8.90;99.00
41756;DHT22;27435;48.480;9.258;2023-11-21T10:48:32;8.70;99.00
41756;DHT22;27435;48.480;9.258;2023-11-21T10:50:58;8.70;99.00
41756;DHT22;27435;48.480;9.258;2023-11-21T10:53:28;8.90;99.00
41756;DHT22;27435;48.480;9.258;2023-11-21T10:56:05;8.90;99.00
41756;DHT22;27435;48.480;9.258;2023-11-21T10:58:33;8.80;99.00
41756;DHT22;27435;48.480;9.258;2023-11-21T11:00:59;8.70;99.00
41756;DHT22;27435;48.480;9.258;2023-11-21T11:03:26;8.70;99.00
41756;DHT22;27435;48.480;9.258;2023-11-21T11:05:52;8.70;99.00
41756;DHT22;27435;48.480;9.258;2023-11-21T11:08:21;8.60;99.00
41756;DHT22;27435;48.480;9.258;2023-11-21T11:10:51;8.50;99.00
41756;DHT22;27435;48.480;9.258;2023-11-21T11:13:18;8.60;99.00
41756;DHT22;27435;48.480;9.258;2023-11-21T11:15:47;8.60;99.00
41756;DHT22;27435;48.480;9.258;2023-11-21T11:18:13;8.70;99.00
41756;DHT22;27435;48.480;9.258;2023-11-21T11:20:40;8.80;99.00
41756;DHT22;27435;48.480;9.258;2023-11-21T11:26:02;9.10;99.00
41756;DHT22;27435;48.480;9.258;2023-11-21T11:28:47;9.30;99.00
41756;DHT22;27435;48.480;9.258;2023-11-21T11:34:29;9.40;99.00
41756;DHT22;27435;48.480;9.258;2023-11-21T11:37:04;9.60;99.00
41756;DHT22;27435;48.480;9.258;2023-11-21T11:39:38;9.80;99.00
41756;DHT22;27435;48.480;9.258;2023-11-21T11:42:12;9.80;99.00
41756;DHT22;27435;48.480;9.258;2023-11-21T11:47:27;10.10;99.00
41756;DHT22;27435;48.480;9.258;2023-11-21T11:52:40;10.00;99.00
41756;DHT22;27435;48.480;9.258;2023-11-21T11:55:11;10.00;99.00
41756;DHT22;27435;48.480;9.258;2023-11-21T11:57:38;9.90;99.00
41756;DHT22;27435;48.480;9.258;2023-11-21T12:00:14;9.70;99.00
41756;DHT22;27435;48.480;9.258;2023-11-21T12:02:49;9.60;99.00
41756;DHT22;27435;48.480;9.258;2023-11-21T12:05:18;9.50;99.00
41756;DHT22;27435;48.480;9.258;2023-11-21T12:07:51;9.40;99.00
41756;DHT22;27435;48.480;9.258;2023-11-21T12:10:25;9.30;99.00
41756;DHT22;27435;48.480;9.258;2023-11-21T12:12:53;9.40;99.00
41756;DHT22;27435;48.480;9.258;2023-11-21T12:15:19;9.80;99.00
41756;DHT22;27435;48.480;9.258;2023-11-21T12:17:45;9.90;99.00
41756;DHT22;27435;48.480;9.258;2023-11-21T12:20:12;10.00;99.00
41756;DHT22;27435;48.480;9.258;2023-11-21T12:22:50;10.10;99.00
41756;DHT22;27435;48.480;9.258;2023-11-21T12:25:21;10.00;99.00
41756;DHT22;27435;48.480;9.258;2023-11-21T12:27:49;9.80;99.00
41756;DHT22;27435;48.480;9.258;2023-11-21T12:30:16;9.70;99.00
41756;DHT22;27435;48.480;9.258;2023-11-21T12:32:44;9.70;99.00
41756;DHT22;27435;48.480;9.258;2023-11-21T12:35:14;9.40;99.00
41756;DHT22;27435;48.480;9.258;2023-11-21T12:37:41;9.30;99.00
41756;DHT22;27435;48.480;9.258;2023-11-21T12:40:09;9.40;99.00
41756;DHT22;27435;48.480;9.258;2023-11-21T12:42:39;9.30;99.00
41756;DHT22;27435;48.480;9.258;2023-11-21T12:45:29;9.20;99.00
41756;DHT22;27435;48.480;9.258;2023-11-21T12:48:05;9.30;99.00
41756;DHT22;27435;48.480;9.258;2023-11-21T12:50:35;9.50;99.00
41756;DHT22;27435;48.480;9.258;2023-11-21T12:53:05;9.30;99.00
41756;DHT22;27435;48.480;9.258;2023-11-21T12:55:32;9.10;99.00
41756;DHT22;27435;48.480;9.258;2023-11-21T12:58:01;9.00;99.00
41756;DHT22;27435;48.480;9.258;2023-11-21T13:00:42;8.90;99.00
41756;DHT22;27435;48.480;9.258;2023-11-21T13:03:09;9.10;99.00
41756;DHT22;27435;48.480;9.258;2023-11-21T13:05:39;9.20;99.00
41756;DHT22;27435;48.480;9.258;2023-11-21T13:08:08;9.20;99.00
41756;DHT22;27435;48.480;9.258;2023-11-21T13:10:36;9.20;99.00
41756;DHT22;27435;48.480;9.258;2023-11-21T13:13:06;9.10;99.00
41756;DHT22;27435;48.480;9.258;2023-11-21T13:15:35;9.00;99.00
41756;DHT22;27435;48.480;9.258;2023-11-21T13:18:04;9.00;99.00
41756;DHT22;27435;48.480;9.258;2023-11-21T13:20:29;9.00;99.00
41756;DHT22;27435;48.480;9.258;2023-11-21T13:22:56;8.90;99.00
41756;DHT22;27435;48.480;9.258;2023-11-21T13:25:27;9.00;99.00
41756;DHT22;27435;48.480;9.258;2023-11-21T13:27:56;9.20;99.00
41756;DHT22;27435;48.480;9.258;2023-11-21T13:30:23;9.30;99.00
41756;DHT22;27435;48.480;9.258;2023-11-21T13:32:53;9.30;99.00
41756;DHT22;27435;48.480;9.258;2023-11-21T13:35:23;9.20;99.00
41756;DHT22;27435;48.480;9.258;2023-11-21T13:38:05;9.10;99.00
41756;DHT22;27435;48.480;9.258;2023-11-21T13:40:32;9.10;99.00
41756;DHT22;27435;48.480;9.258;2023-11-21T13:43:00;9.10;99.00
41756;DHT22;27435;48.480;9.258;2023-11-21T13:45:29;9.30;99.00
41756;DHT22;27435;48.480;9.258;2023-11-21T13:47:56;9.20;99.00
41756;DHT22;27435;48.480;9.258;2023-11-21T13:50:25;9.20;99.00
41756;DHT22;27435;48.480;9.258;2023-11-21T13:53:01;9.40;99.00
41756;DHT22;27435;48.480;9.258;2023-11-21T13:55:44;9.50;99.00
41756;DHT22;27435;48.480;9.258;2023-11-21T13:58:11;9.30;99.00
41756;DHT22;27435;48.480;9.258;2023-11-21T14:00:42;9.40;99.00
41756;DHT22;27435;48.480;9.258;2023-11-21T14:03:14;9.50;99.00
41756;DHT22;27435;48.480;9.258;2023-11-21T14:05:45;9.50;99.00
41756;DHT22;27435;48.480;9.258;2023-11-21T14:08:13;9.60;99.00
41756;DHT22;27435;48.480;9.258;2023-11-21T14:10:42;9.70;99.00
41756;DHT22;27435;48.480;9.258;2023-11-21T14:13:18;9.70;99.00
41756;DHT22;27435;48.480;9.258;2023-11-21T14:15:45;9.70;99.00
41756;DHT22;27435;48.480;9.258;2023-11-21T14:18:12;9.70;99.00
41756;DHT22;27435;48.480;9.258;2023-11-21T14:20:43;9.60;99.00
41756;DHT22;27435;48.480;9.258;2023-11-21T14:23:10;9.70;99.00
41756;DHT22;27435;48.480;9.258;2023-11-21T14:25:36;9.60;99.00
41756;DHT22;27435;48.480;9.258;2023-11-21T14:28:03;9.60;99.00
41756;DHT22;27435;48.480;9.258;2023-11-21T14:30:30;9.50;99.00
41756;DHT22;27435;48.480;9.258;2023-11-21T14:32:58;9.50;99.00
41756;DHT22;27435;48.480;9.258;2023-11-21T14:35:24;9.50;99.00
41756;DHT22;27435;48.480;9.258;2023-11-21T14:37:50;9.40;99.00
41756;DHT22;27435;48.480;9.258;2023-11-21T14:40:16;9.50;99.00
41756;DHT22;27435;48.480;9.258;2023-11-21T14:42:47;9.40;99.00
41756;DHT22;27435;48.480;9.258;2023-11-21T14:45:13;9.40;99.00
41756;DHT22;27435;48.480;9.258;2023-11-21T14:47:48;9.20;99.00
41756;DHT22;27435;48.480;9.258;2023-11-21T14:50:24;9.20;99.00
41756;DHT22;27435;48.480;9.258;2023-11-21T14:53:11;9.30;99.00
41756;DHT22;27435;48.480;9.258;2023-11-21T14:55:39;9.10;99.00
41756;DHT22;27435;48.480;9.258;2023-11-21T14:58:19;9.20;99.00
41756;DHT22;27435;48.480;9.258;2023-11-21T15:00:58;9.30;99.00
41756;DHT22;27435;48.480;9.258;2023-11-21T15:03:25;9.00;99.00
41756;DHT22;27435;48.480;9.258;2023-11-21T15:05:58;8.90;99.00
41756;DHT22;27435;48.480;9.258;2023-11-21T15:08:24;9.10;99.00
41756;DHT22;27435;48.480;9.258;2023-11-21T15:10:58;9.10;99.00
41756;DHT22;27435;48.480;9.258;2023-11-21T15:13:24;9.10;99.00
41756;DHT22;27435;48.480;9.258;2023-11-21T15:15:53;9.00;99.00
41756;DHT22;27435;48.480;9.258;2023-11-21T15:18:21;8.80;99.00
41756;DHT22;27435;48.480;9.258;2023-11-21T15:20:47;8.90;99.00
41756;DHT22;27435;48.480;9.258;2023-11-21T15:23:13;8.90;99.00
41756;DHT22;27435;48.480;9.258;2023-11-21T15:25:39;8.70;99.00
41756;DHT22;27435;48.480;9.258;2023-11-21T15:28:05;8.60;99.00
41756;DHT22;27435;48.480;9.258;2023-11-21T15:30:32;8.50;99.00
41756;DHT22;27435;48.480;9.258;2023-11-21T15:32:58;8.20;99.00
41756;DHT22;27435;48.480;9.258;2023-11-21T15:35:24;8.20;99.00
41756;DHT22;27435;48.480;9.258;2023-11-21T15:37:50;8.20;99.00
41756;DHT22;27435;48.480;9.258;2023-11-21T15:40:16;8.00;99.00
41756;DHT22;27435;48.480;9.258;2023-11-21T15:42:42;7.80;99.00
41756;DHT22;27435;48.480;9.258;2023-11-21T15:45:10;7.80;99.00
41756;DHT22;27435;48.480;9.258;2023-11-21T15:47:36;7.80;99.00
41756;DHT22;27435;48.480;9.258;2023-11-21T15:50:04;7.80;99.00
41756;DHT22;27435;48.480;9.258;2023-11-21T15:52:33;7.80;99.00
41756;DHT22;27435;48.480;9.258;2023-11-21T15:54:59;7.70;99.00
41756;DHT22;27435;48.480;9.258;2023-11-21T15:57:25;7.70;99.00
41756;DHT22;27435;48.480;9.258;2023-11-21T15:59:50;7.80;99.00